PAC152 KLAX-KPHX
Flight info
| Callsign | PAC152 |
|---|---|
| Flight time | N/A |
| Altitude | 15000 |
| Route | KLAX IYIRI CUVEK SCOLE DTCHS HYDRR GEELA PUNNT TEICH TESLE FALGO CAGOR BALTE JEPES OVNUY ADWOT KPHX |
| Aircraft | C208/L-V/N |
Departure
| Time | 2026-05-05 18:24 |
|---|---|
| Airport | Los Angeles International Airport (KLAX) |
Arrival
| Time | N/A |
|---|---|
| Airport | Phoenix Sky Harbor International Airport (KPHX) |
| Time | Latitude | Longitude | Altitude | Speed | Heading |
|---|---|---|---|---|---|
| 2026-05-05 17:48 | 33.94407 | -118.43186 | 124 ft | 0 kts | 262° |
| 2026-05-05 18:19 | 33.94401 | -118.43179 | 111 ft | 1 kts | 27° |
| 2026-05-05 18:19 | 33.94433 | -118.43146 | 123 ft | 12 kts | 45° |
| 2026-05-05 18:19 | 33.94497 | -118.43111 | 124 ft | 10 kts | 354° |
| 2026-05-05 18:19 | 33.94540 | -118.43116 | 124 ft | 0 kts | 355° |
| 2026-05-05 18:20 | 33.94542 | -118.43116 | 124 ft | 2 kts | 355° |
| 2026-05-05 18:20 | 33.94592 | -118.43111 | 124 ft | 12 kts | 32° |
| 2026-05-05 18:20 | 33.94606 | -118.43005 | 124 ft | 15 kts | 84° |
| 2026-05-05 18:20 | 33.94644 | -118.42986 | 124 ft | 2 kts | 308° |
| 2026-05-05 18:21 | 33.94641 | -118.42980 | 123 ft | 0 kts | 308° |
| 2026-05-05 18:21 | 33.94643 | -118.42985 | 123 ft | 0 kts | 308° |
| 2026-05-05 18:22 | 33.94644 | -118.42987 | 124 ft | 1 kts | 308° |
| 2026-05-05 18:22 | 33.94659 | -118.43008 | 124 ft | 5 kts | 308° |
| 2026-05-05 18:22 | 33.94688 | -118.43052 | 124 ft | 8 kts | 313° |
| 2026-05-05 18:22 | 33.94753 | -118.43081 | 123 ft | 13 kts | 354° |
| 2026-05-05 18:23 | 33.94829 | -118.43092 | 123 ft | 0 kts | 353° |
| 2026-05-05 18:23 | 33.94836 | -118.43093 | 124 ft | 4 kts | 353° |
| 2026-05-05 18:23 | 33.94888 | -118.43097 | 124 ft | 11 kts | 11° |
| 2026-05-05 18:23 | 33.94923 | -118.42991 | 124 ft | 24 kts | 83° |
| 2026-05-05 18:24 | 33.94997 | -118.42293 | 198 ft | 123 kts | 83° |
| 2026-05-05 18:24 | 33.95142 | -118.41108 | 362 ft | 158 kts | 80° |
| 2026-05-05 18:24 | 33.95308 | -118.39792 | 803 ft | 162 kts | 82° |
| 2026-05-05 18:24 | 33.95500 | -118.38420 | 1028 ft | 170 kts | 83° |
| 2026-05-05 18:25 | 33.95696 | -118.36987 | 1185 ft | 177 kts | 82° |
| 2026-05-05 18:25 | 33.95826 | -118.35990 | 1310 ft | 179 kts | 84° |
| 2026-05-05 18:25 | 33.95623 | -118.34021 | 1543 ft | 182 kts | 115° |
| 2026-05-05 18:25 | 33.95092 | -118.32637 | 1712 ft | 187 kts | 108° |
| 2026-05-05 18:26 | 33.94885 | -118.31114 | 1859 ft | 181 kts | 98° |
| 2026-05-05 18:26 | 33.94750 | -118.29641 | 1909 ft | 177 kts | 99° |
| 2026-05-05 18:26 | 33.94570 | -118.28226 | 2106 ft | 172 kts | 102° |
| 2026-05-05 18:26 | 33.94422 | -118.26800 | 2223 ft | 171 kts | 98° |
| 2026-05-05 18:27 | 33.94301 | -118.25412 | 2374 ft | 163 kts | 101° |
| 2026-05-05 18:27 | 33.94178 | -118.24087 | 2541 ft | 156 kts | 100° |
| 2026-05-05 18:27 | 33.94043 | -118.22813 | 2661 ft | 151 kts | 101° |
| 2026-05-05 18:27 | 33.93914 | -118.21578 | 2785 ft | 147 kts | 100° |
| 2026-05-05 18:28 | 33.93658 | -118.19132 | 3032 ft | 145 kts | 100° |
| 2026-05-05 18:28 | 33.93535 | -118.17941 | 3153 ft | 144 kts | 101° |
| 2026-05-05 18:28 | 33.93408 | -118.16747 | 3280 ft | 143 kts | 99° |
| 2026-05-05 18:29 | 33.93285 | -118.15562 | 3406 ft | 143 kts | 101° |
| 2026-05-05 18:29 | 33.93161 | -118.14373 | 3530 ft | 143 kts | 99° |
| 2026-05-05 18:29 | 33.93036 | -118.13183 | 3655 ft | 144 kts | 99° |
| 2026-05-05 18:29 | 33.92909 | -118.11980 | 3771 ft | 146 kts | 98° |
| 2026-05-05 18:30 | 33.92782 | -118.10772 | 3904 ft | 146 kts | 99° |
| 2026-05-05 18:30 | 33.92655 | -118.09558 | 4030 ft | 146 kts | 99° |
| 2026-05-05 18:30 | 33.92526 | -118.08341 | 4158 ft | 146 kts | 98° |
| 2026-05-05 18:30 | 33.92399 | -118.07129 | 4293 ft | 147 kts | 98° |
| 2026-05-05 18:31 | 33.92269 | -118.05909 | 4421 ft | 148 kts | 99° |
| 2026-05-05 18:31 | 33.92139 | -118.04667 | 4553 ft | 152 kts | 100° |
| 2026-05-05 18:31 | 33.92006 | -118.03420 | 4684 ft | 153 kts | 99° |
| 2026-05-05 18:31 | 33.91871 | -118.02138 | 4810 ft | 154 kts | 100° |
| 2026-05-05 18:32 | 33.91737 | -118.00876 | 4934 ft | 151 kts | 99° |
| 2026-05-05 18:32 | 33.91606 | -117.99625 | 5059 ft | 150 kts | 100° |
| 2026-05-05 18:32 | 33.91472 | -117.98378 | 5195 ft | 153 kts | 99° |
| 2026-05-05 18:32 | 33.91342 | -117.97087 | 5324 ft | 159 kts | 97° |
| 2026-05-05 18:33 | 33.91204 | -117.95758 | 5447 ft | 161 kts | 100° |
| 2026-05-05 18:33 | 33.91048 | -117.94415 | 5537 ft | 161 kts | 99° |
| 2026-05-05 18:33 | 33.90909 | -117.93083 | 5658 ft | 159 kts | 99° |
| 2026-05-05 18:33 | 33.90769 | -117.91777 | 5778 ft | 155 kts | 99° |
| 2026-05-05 18:34 | 33.90634 | -117.90503 | 5905 ft | 151 kts | 98° |
| 2026-05-05 18:34 | 33.90503 | -117.89280 | 6032 ft | 148 kts | 98° |
| 2026-05-05 18:34 | 33.90371 | -117.88037 | 6173 ft | 151 kts | 98° |
| 2026-05-05 18:34 | 33.90233 | -117.86770 | 6301 ft | 153 kts | 98° |
| 2026-05-05 18:35 | 33.90098 | -117.85487 | 6426 ft | 155 kts | 97° |
| 2026-05-05 18:35 | 33.89961 | -117.84197 | 6550 ft | 156 kts | 97° |
| 2026-05-05 18:35 | 33.89812 | -117.82886 | 6632 ft | 159 kts | 98° |
| 2026-05-05 18:35 | 33.89676 | -117.81564 | 6759 ft | 161 kts | 97° |
| 2026-05-05 18:36 | 33.89542 | -117.80228 | 6889 ft | 160 kts | 98° |
| 2026-05-05 18:36 | 33.89393 | -117.78905 | 7032 ft | 159 kts | 98° |
| 2026-05-05 18:36 | 33.89247 | -117.77558 | 7041 ft | 163 kts | 98° |
| 2026-05-05 18:36 | 33.89100 | -117.76213 | 7043 ft | 163 kts | 98° |
| 2026-05-05 18:37 | 33.88952 | -117.74859 | 7044 ft | 163 kts | 98° |
| 2026-05-05 18:37 | 33.88806 | -117.73504 | 7046 ft | 163 kts | 97° |
| 2026-05-05 18:37 | 33.88662 | -117.72170 | 7044 ft | 163 kts | 98° |
| 2026-05-05 18:37 | 33.88517 | -117.70828 | 7050 ft | 162 kts | 98° |
| 2026-05-05 18:38 | 33.88371 | -117.69481 | 7055 ft | 163 kts | 98° |
| 2026-05-05 18:38 | 33.88223 | -117.68122 | 7055 ft | 164 kts | 98° |
| 2026-05-05 18:38 | 33.88080 | -117.66766 | 7062 ft | 163 kts | 98° |
| 2026-05-05 18:38 | 33.87928 | -117.65406 | 7059 ft | 165 kts | 98° |
| 2026-05-05 18:39 | 33.87777 | -117.64035 | 7057 ft | 165 kts | 98° |
| 2026-05-05 18:39 | 33.87629 | -117.62661 | 7055 ft | 166 kts | 98° |
| 2026-05-05 18:39 | 33.87479 | -117.61290 | 7052 ft | 165 kts | 98° |
| 2026-05-05 18:39 | 33.87333 | -117.59945 | 7052 ft | 164 kts | 98° |
| 2026-05-05 18:40 | 33.87184 | -117.58586 | 7053 ft | 164 kts | 98° |
| 2026-05-05 18:40 | 33.87036 | -117.57233 | 7053 ft | 162 kts | 98° |
| 2026-05-05 18:40 | 33.86887 | -117.55883 | 7052 ft | 163 kts | 98° |
| 2026-05-05 18:40 | 33.86740 | -117.54531 | 7050 ft | 163 kts | 98° |